createdAt,value
2023-03-26T00:00:42.973Z,8.12
2023-03-26T00:03:18.040Z,8.13
2023-03-26T00:06:02.578Z,8.21
2023-03-26T00:08:36.279Z,8.19
2023-03-26T00:11:11.646Z,8.29
2023-03-26T00:13:44.661Z,8.41
2023-03-26T00:16:18.977Z,8.52
2023-03-26T00:18:52.736Z,8.64
2023-03-26T00:21:27.161Z,8.70
2023-03-26T00:24:03.635Z,8.73
2023-03-26T00:26:37.808Z,8.74
2023-03-26T00:29:12.761Z,8.66
2023-03-26T00:31:45.605Z,8.67
2023-03-26T00:34:17.961Z,8.68
2023-03-26T00:36:53.646Z,8.73
2023-03-26T00:39:26.665Z,8.75
2023-03-26T00:42:06.122Z,8.62
2023-03-26T00:44:38.470Z,8.73
2023-03-26T00:47:10.821Z,8.72
2023-03-26T00:49:46.107Z,8.74
2023-03-26T00:52:18.906Z,8.79
2023-03-26T00:54:51.970Z,8.72
2023-03-26T00:57:35.616Z,8.81
2023-03-26T01:00:16.099Z,8.84
2023-03-26T01:02:48.565Z,8.85
2023-03-26T01:05:45.199Z,8.85
2023-03-26T01:08:26.491Z,8.82
2023-03-26T01:11:02.502Z,8.84
2023-03-26T01:13:37.715Z,8.84
2023-03-26T01:16:24.724Z,8.83
2023-03-26T01:18:58.142Z,8.81
2023-03-26T01:21:31.050Z,8.62
2023-03-26T01:24:06.015Z,8.63
2023-03-26T01:27:09.497Z,8.61
2023-03-26T01:29:46.301Z,8.62
2023-03-26T01:32:30.204Z,8.19
2023-03-26T01:35:18.304Z,8.31
2023-03-26T01:38:01.562Z,8.30
2023-03-26T01:40:41.954Z,8.42
2023-03-26T01:43:25.767Z,8.39
2023-03-26T01:46:01.553Z,8.26
2023-03-26T01:48:36.404Z,8.29
2023-03-26T01:51:10.349Z,8.26
2023-03-26T01:53:46.325Z,8.30
2023-03-26T01:56:25.369Z,8.21
2023-03-26T01:59:09.001Z,8.28
2023-03-26T02:01:47.348Z,8.22
2023-03-26T02:04:25.660Z,8.29
2023-03-26T02:07:05.022Z,8.30
2023-03-26T02:09:45.154Z,8.26
2023-03-26T02:12:21.493Z,8.16
2023-03-26T02:14:53.861Z,8.11
2023-03-26T02:17:29.407Z,8.15
2023-03-26T02:20:10.086Z,8.20
2023-03-26T02:22:45.153Z,8.14
2023-03-26T02:25:19.948Z,8.12
2023-03-26T02:27:54.186Z,8.16
2023-03-26T02:30:28.797Z,8.14
2023-03-26T02:33:03.677Z,8.16
2023-03-26T02:35:45.193Z,8.16
2023-03-26T02:38:18.761Z,8.14
2023-03-26T02:40:51.417Z,8.13
2023-03-26T02:43:25.849Z,8.11
2023-03-26T02:45:58.663Z,7.95
2023-03-26T02:48:50.446Z,8.07
2023-03-26T02:51:29.078Z,8.03
2023-03-26T02:54:10.143Z,8.06
2023-03-26T02:57:00.489Z,8.08
2023-03-26T02:59:52.539Z,7.82
2023-03-26T03:02:48.219Z,7.77
2023-03-26T03:05:37.340Z,7.69
2023-03-26T03:08:33.342Z,7.55
2023-03-26T03:11:35.770Z,7.46
2023-03-26T03:14:08.110Z,7.41
2023-03-26T03:16:41.685Z,7.34
2023-03-26T03:19:15.931Z,7.37
2023-03-26T03:21:48.268Z,7.35
2023-03-26T03:24:20.625Z,7.37
2023-03-26T03:26:56.098Z,7.35
2023-03-26T03:29:38.423Z,7.17
2023-03-26T03:32:31.365Z,7.15
2023-03-26T03:35:08.298Z,7.24
2023-03-26T03:37:41.228Z,7.21
2023-03-26T03:40:14.652Z,7.21
2023-03-26T03:42:47.465Z,7.19
2023-03-26T03:45:27.298Z,7.31
2023-03-26T03:48:27.071Z,7.36
2023-03-26T03:50:59.437Z,7.36
2023-03-26T03:53:36.373Z,7.38
2023-03-26T03:56:09.949Z,7.27
2023-03-26T03:59:05.130Z,7.25
2023-03-26T04:01:42.480Z,7.12
2023-03-26T04:04:23.907Z,7.14
2023-03-26T04:07:07.855Z,7.17
2023-03-26T04:10:09.844Z,7.14
2023-03-26T04:13:00.901Z,7.02
2023-03-26T04:15:51.790Z,6.88
2023-03-26T04:18:25.868Z,6.96
2023-03-26T04:21:02.083Z,7.01
2023-03-26T04:23:36.475Z,7.03
2023-03-26T04:26:19.121Z,7.02
2023-03-26T04:29:16.194Z,7.17
2023-03-26T04:31:50.614Z,7.22
2023-03-26T04:34:24.617Z,7.07
2023-03-26T04:37:24.178Z,7.11
2023-03-26T04:40:08.706Z,7.21
2023-03-26T04:42:45.338Z,7.31
2023-03-26T04:45:24.684Z,7.27
2023-03-26T04:48:01.990Z,7.16
2023-03-26T04:50:34.652Z,7.13
2023-03-26T04:53:12.859Z,6.98
2023-03-26T04:56:30.360Z,6.97
2023-03-26T04:59:25.447Z,6.80
2023-03-26T05:02:00.845Z,6.85
2023-03-26T05:04:39.241Z,6.92
2023-03-26T05:07:16.359Z,6.97
2023-03-26T05:09:53.553Z,7.00
2023-03-26T05:12:38.900Z,6.97
2023-03-26T05:15:15.817Z,6.94
2023-03-26T05:18:03.416Z,7.05
2023-03-26T05:20:47.277Z,7.10
2023-03-26T05:23:19.863Z,7.15
2023-03-26T05:26:01.685Z,7.20
2023-03-26T05:28:34.180Z,7.24
2023-03-26T05:31:14.822Z,7.28
2023-03-26T05:33:51.548Z,6.90
2023-03-26T05:36:24.305Z,6.91
2023-03-26T05:39:08.758Z,6.98
2023-03-26T05:42:07.013Z,7.11
2023-03-26T05:44:54.989Z,7.24
2023-03-26T05:47:32.184Z,7.25
2023-03-26T05:50:06.794Z,7.28
2023-03-26T05:52:40.105Z,7.36
2023-03-26T05:55:32.690Z,7.38
2023-03-26T05:58:24.682Z,7.47
2023-03-26T06:01:29.415Z,7.46
2023-03-26T06:04:20.837Z,7.47
2023-03-26T06:07:09.382Z,7.49
2023-03-26T06:09:44.075Z,7.49
2023-03-26T06:12:16.583Z,7.57
2023-03-26T06:14:50.650Z,7.61
2023-03-26T06:17:28.475Z,7.58
2023-03-26T06:20:12.207Z,7.47
2023-03-26T06:22:47.171Z,7.57
2023-03-26T06:25:25.361Z,7.78
2023-03-26T06:28:09.986Z,7.82
2023-03-26T06:31:10.317Z,7.92
2023-03-26T06:33:48.275Z,7.87
2023-03-26T06:36:20.701Z,8.12
2023-03-26T06:38:55.704Z,8.28
2023-03-26T06:41:34.572Z,8.36
2023-03-26T06:44:29.195Z,8.47
2023-03-26T06:47:20.608Z,8.66
2023-03-26T06:49:55.869Z,8.85
2023-03-26T06:52:44.682Z,9.07
2023-03-26T06:55:39.933Z,9.17
2023-03-26T06:58:26.332Z,8.99
2023-03-26T07:01:02.020Z,9.15
2023-03-26T07:03:53.832Z,9.29
2023-03-26T07:06:45.256Z,9.60
2023-03-26T07:09:36.357Z,9.76
2023-03-26T07:12:27.575Z,9.91
2023-03-26T07:15:24.094Z,10.07
2023-03-26T07:18:19.368Z,10.30
2023-03-26T07:20:54.012Z,10.51
2023-03-26T07:23:28.568Z,10.48
2023-03-26T07:26:25.896Z,10.68
2023-03-26T07:29:15.717Z,10.81
2023-03-26T07:32:18.465Z,10.87
2023-03-26T07:35:25.948Z,11.08
2023-03-26T07:38:33.077Z,11.33
2023-03-26T07:41:39.923Z,11.35
2023-03-26T07:44:50.433Z,11.62
2023-03-26T07:47:44.289Z,11.68
2023-03-26T07:50:18.981Z,11.87
2023-03-26T07:53:10.773Z,11.45
2023-03-26T07:56:11.530Z,11.75
2023-03-26T07:59:13.681Z,11.72
2023-03-26T08:02:40.882Z,12.10
2023-03-26T08:05:34.710Z,11.91
2023-03-26T08:08:36.753Z,12.30
2023-03-26T08:11:39.194Z,12.26
2023-03-26T08:14:24.174Z,12.09
2023-03-26T08:17:06.085Z,12.45
2023-03-26T08:19:58.254Z,12.65
2023-03-26T08:22:36.037Z,12.55
2023-03-26T08:25:27.224Z,12.65
2023-03-26T08:28:26.079Z,12.70
2023-03-26T08:31:02.160Z,13.03
2023-03-26T08:33:37.755Z,12.96
2023-03-26T08:36:10.828Z,13.33
2023-03-26T08:38:44.082Z,13.48
2023-03-26T08:41:46.913Z,13.70
2023-03-26T08:44:58.680Z,13.42
2023-03-26T08:48:07.338Z,13.42
2023-03-26T08:51:16.413Z,13.50
2023-03-26T08:54:18.772Z,13.64
2023-03-26T08:57:01.378Z,13.88
2023-03-26T09:00:01.316Z,13.60
2023-03-26T09:03:14.448Z,13.73
2023-03-26T09:06:24.836Z,13.82
2023-03-26T09:09:35.656Z,13.71
2023-03-26T09:12:36.355Z,13.48
2023-03-26T09:15:59.774Z,13.67
2023-03-26T09:19:08.040Z,13.51
2023-03-26T09:22:07.276Z,13.65
2023-03-26T09:25:13.244Z,13.78
2023-03-26T09:28:06.708Z,14.15
2023-03-26T09:31:03.171Z,14.40
2023-03-26T09:33:55.699Z,13.99
2023-03-26T09:36:54.162Z,13.93
2023-03-26T09:39:37.181Z,14.24
2023-03-26T09:42:21.280Z,14.29
2023-03-26T09:45:31.672Z,13.81
2023-03-26T09:48:28.514Z,13.97
2023-03-26T09:51:12.929Z,14.32
2023-03-26T09:54:02.910Z,14.40
2023-03-26T09:56:46.813Z,14.69
2023-03-26T09:59:36.994Z,14.72
2023-03-26T10:02:45.877Z,14.74
2023-03-26T10:05:44.309Z,14.72
2023-03-26T10:08:35.132Z,14.80
2023-03-26T10:11:17.201Z,14.69
2023-03-26T10:14:04.941Z,15.02
2023-03-26T10:16:47.463Z,14.84
2023-03-26T10:19:31.107Z,15.10
2023-03-26T10:22:13.930Z,14.95
2023-03-26T10:25:13.001Z,15.11
2023-03-26T10:28:00.128Z,15.29
2023-03-26T10:31:00.467Z,15.79
2023-03-26T10:33:41.845Z,15.99
2023-03-26T10:36:28.896Z,16.45
2023-03-26T10:39:37.111Z,16.45
2023-03-26T10:42:40.092Z,16.39
2023-03-26T10:45:24.876Z,16.23
2023-03-26T10:48:16.556Z,16.37
2023-03-26T10:50:59.313Z,16.68
2023-03-26T10:53:37.151Z,16.33
2023-03-26T10:56:23.275Z,16.44
2023-03-26T10:58:57.016Z,16.56
2023-03-26T11:01:44.773Z,16.84
2023-03-26T11:04:41.174Z,17.28
2023-03-26T11:07:20.754Z,17.45
2023-03-26T11:10:00.199Z,17.69
2023-03-26T11:12:43.538Z,17.44
2023-03-26T11:15:23.880Z,17.83
2023-03-26T11:18:07.793Z,17.82
2023-03-26T11:20:45.842Z,17.79
2023-03-26T11:23:30.684Z,17.71
2023-03-26T11:26:12.253Z,18.09
2023-03-26T11:29:31.230Z,18.42
2023-03-26T11:32:10.072Z,18.21
2023-03-26T11:34:49.082Z,18.30
2023-03-26T11:37:29.614Z,18.17
2023-03-26T11:40:10.827Z,17.84
2023-03-26T11:42:44.612Z,17.31
2023-03-26T11:45:21.959Z,17.37
2023-03-26T11:48:01.615Z,17.31
2023-03-26T11:50:38.061Z,17.79
2023-03-26T11:53:12.962Z,17.75
2023-03-26T11:55:51.810Z,17.93
2023-03-26T11:58:30.360Z,18.01
2023-03-26T12:01:13.964Z,17.91
2023-03-26T12:03:58.336Z,18.15
2023-03-26T12:06:32.290Z,18.13
2023-03-26T12:09:14.736Z,18.03
2023-03-26T12:11:48.955Z,17.97
2023-03-26T12:14:24.610Z,18.54
2023-03-26T12:16:58.818Z,18.28
2023-03-26T12:19:38.665Z,18.45
2023-03-26T12:22:29.305Z,18.79
2023-03-26T12:25:15.384Z,18.75
2023-03-26T12:27:49.682Z,18.83
2023-03-26T12:30:25.150Z,19.10
2023-03-26T12:33:00.264Z,19.30
2023-03-26T12:35:35.674Z,19.36
2023-03-26T12:38:21.144Z,19.24
2023-03-26T12:44:44.759Z,19.00
2023-03-26T12:44:50.229Z,18.54
2023-03-26T12:47:58.452Z,18.83
2023-03-26T12:50:14.193Z,19.27
2023-03-26T12:53:05.484Z,18.97
2023-03-26T12:55:58.871Z,19.00
2023-03-26T12:58:52.809Z,19.05
2023-03-26T13:01:33.653Z,18.88
2023-03-26T13:04:27.988Z,18.91
2023-03-26T13:07:10.093Z,18.76
2023-03-26T13:09:56.364Z,18.95
2023-03-26T13:12:40.312Z,18.65
2023-03-26T13:15:25.934Z,17.98
2023-03-26T13:18:15.082Z,18.24
2023-03-26T13:20:50.915Z,18.59
2023-03-26T13:23:38.598Z,18.72
2023-03-26T13:26:21.890Z,18.95
2023-03-26T13:29:06.223Z,18.70
2023-03-26T13:31:48.706Z,18.56
2023-03-26T13:34:33.407Z,18.56
2023-03-26T13:37:14.071Z,18.50
2023-03-26T13:39:59.604Z,18.93
2023-03-26T13:42:42.772Z,19.05
2023-03-26T13:45:42.637Z,18.94
2023-03-26T13:48:21.157Z,19.19
2023-03-26T13:51:01.086Z,18.95
2023-03-26T13:53:41.296Z,18.90
2023-03-26T13:56:19.136Z,18.75
2023-03-26T13:58:58.109Z,18.69
2023-03-26T14:01:34.092Z,18.52
2023-03-26T14:04:17.091Z,18.71
2023-03-26T14:06:56.592Z,18.85
2023-03-26T14:09:34.116Z,18.65
2023-03-26T14:12:21.954Z,18.13
2023-03-26T14:15:00.022Z,18.31
2023-03-26T14:17:39.179Z,18.35
2023-03-26T14:20:39.228Z,18.54
2023-03-26T14:23:52.982Z,18.05
2023-03-26T14:26:46.385Z,18.04
2023-03-26T14:29:56.607Z,17.90
2023-03-26T14:32:45.170Z,17.37
2023-03-26T14:35:30.896Z,16.92
2023-03-26T14:38:29.049Z,16.72
2023-03-26T14:41:21.534Z,16.99
2023-03-26T14:44:48.184Z,17.44
2023-03-26T14:47:23.605Z,17.54
2023-03-26T14:50:30.808Z,17.02
2023-03-26T14:53:11.173Z,16.91
2023-03-26T14:56:01.993Z,16.81
2023-03-26T14:59:22.176Z,16.77
2023-03-26T15:02:37.458Z,16.59
2023-03-26T15:05:45.088Z,16.73
2023-03-26T15:08:49.181Z,16.84
2023-03-26T15:11:29.807Z,16.59
2023-03-26T15:14:23.178Z,16.56
2023-03-26T15:17:29.209Z,16.48
2023-03-26T15:20:47.925Z,16.46
2023-03-26T15:23:52.640Z,16.07
2023-03-26T15:27:04.703Z,15.86
2023-03-26T15:30:19.611Z,15.88
2023-03-26T15:33:33.568Z,15.82
2023-03-26T15:36:38.495Z,15.62
2023-03-26T15:39:43.917Z,15.54
2023-03-26T15:42:44.897Z,15.58
2023-03-26T15:45:33.218Z,15.53
2023-03-26T15:48:19.558Z,15.53
2023-03-26T15:50:57.665Z,15.41
2023-03-26T15:53:39.102Z,15.51
2023-03-26T15:56:26.853Z,15.42
2023-03-26T15:59:10.889Z,15.49
2023-03-26T16:02:01.628Z,15.26
2023-03-26T16:04:50.346Z,15.22
2023-03-26T16:07:40.789Z,15.20
2023-03-26T16:10:22.986Z,15.07
2023-03-26T16:13:22.701Z,15.00
2023-03-26T16:15:57.207Z,14.94
2023-03-26T16:18:35.133Z,14.82
2023-03-26T16:21:47.199Z,14.80
2023-03-26T16:24:25.744Z,14.74
2023-03-26T16:27:08.524Z,14.72
2023-03-26T16:30:21.011Z,14.74
2023-03-26T16:32:57.860Z,14.70
2023-03-26T16:36:01.858Z,14.66
2023-03-26T16:38:49.817Z,14.60
2023-03-26T16:41:26.037Z,14.57
2023-03-26T16:44:15.922Z,14.59
2023-03-26T16:46:57.268Z,14.59
2023-03-26T16:49:43.196Z,14.56
2023-03-26T16:52:22.931Z,14.48
2023-03-26T16:55:06.506Z,14.39
2023-03-26T16:57:47.785Z,14.35
2023-03-26T17:00:48.031Z,14.24
2023-03-26T17:03:38.096Z,14.13
2023-03-26T17:06:26.845Z,14.03
2023-03-26T17:09:14.631Z,13.96
2023-03-26T17:11:57.417Z,13.89
2023-03-26T17:14:38.285Z,13.76
2023-03-26T17:17:29.930Z,13.58
2023-03-26T17:20:11.407Z,13.48
2023-03-26T17:22:47.491Z,13.32
2023-03-26T17:25:45.757Z,13.24
2023-03-26T17:28:41.197Z,13.14
2023-03-26T17:34:44.788Z,12.96
2023-03-26T17:37:47.190Z,12.85
2023-03-26T17:40:30.448Z,12.70
2023-03-26T17:43:09.008Z,12.69
2023-03-26T17:45:43.091Z,12.60
2023-03-26T17:48:21.073Z,12.54
2023-03-26T17:50:57.854Z,12.57
2023-03-26T17:53:33.853Z,12.53
2023-03-26T17:56:14.717Z,12.43
2023-03-26T17:58:51.886Z,12.39
2023-03-26T18:01:29.950Z,12.35
2023-03-26T18:04:05.630Z,12.29
2023-03-26T18:06:56.719Z,12.22
2023-03-26T18:09:42.998Z,12.15
2023-03-26T18:12:42.506Z,12.10
2023-03-26T18:15:42.750Z,12.06
2023-03-26T18:18:20.197Z,11.94
2023-03-26T18:20:54.329Z,11.86
2023-03-26T18:23:34.832Z,11.81
2023-03-26T18:26:13.597Z,11.77
2023-03-26T18:28:52.226Z,11.59
2023-03-26T18:31:26.657Z,11.54
2023-03-26T18:34:10.641Z,11.48
2023-03-26T18:36:42.987Z,11.38
2023-03-26T18:39:16.260Z,11.32
2023-03-26T18:41:49.295Z,11.26
2023-03-26T18:44:21.911Z,11.24
2023-03-26T18:46:54.648Z,11.18
2023-03-26T18:49:29.067Z,11.09
2023-03-26T18:52:01.965Z,11.07
2023-03-26T18:54:35.864Z,11.03
2023-03-26T18:57:15.291Z,11.02
2023-03-26T18:59:50.511Z,10.93
2023-03-26T19:02:25.305Z,10.82
2023-03-26T19:04:58.098Z,10.67
2023-03-26T19:07:30.728Z,10.54
2023-03-26T19:10:03.706Z,10.48
2023-03-26T19:12:38.521Z,10.38
2023-03-26T19:15:14.188Z,10.28
2023-03-26T19:17:50.702Z,10.25
2023-03-26T19:20:25.758Z,10.20
2023-03-26T19:22:58.691Z,10.16
2023-03-26T19:25:36.090Z,10.07
2023-03-26T19:28:16.400Z,9.99
2023-03-26T19:30:53.353Z,9.91
2023-03-26T19:33:33.521Z,9.85
2023-03-26T19:36:17.793Z,9.79
2023-03-26T19:38:52.229Z,9.76
2023-03-26T19:41:31.788Z,9.68
2023-03-26T19:44:19.028Z,9.63
2023-03-26T19:46:53.390Z,9.47
2023-03-26T19:49:29.634Z,9.48
2023-03-26T19:52:12.731Z,9.38
2023-03-26T19:55:00.118Z,9.25
2023-03-26T19:57:35.638Z,9.09
2023-03-26T20:00:13.404Z,9.07
2023-03-26T20:02:46.510Z,9.06
2023-03-26T20:05:22.678Z,9.01
2023-03-26T20:07:57.864Z,8.85
2023-03-26T20:10:30.321Z,8.79
2023-03-26T20:13:02.826Z,8.68
2023-03-26T20:15:38.259Z,8.64
2023-03-26T20:18:11.632Z,8.60
2023-03-26T20:20:44.303Z,8.56
2023-03-26T20:23:16.978Z,8.42
2023-03-26T20:25:53.134Z,8.41
2023-03-26T20:28:25.842Z,8.23
2023-03-26T20:30:59.256Z,8.23
2023-03-26T20:33:32.192Z,8.28
2023-03-26T20:36:09.432Z,8.15
2023-03-26T20:38:42.489Z,8.06
2023-03-26T20:41:17.751Z,7.98
2023-03-26T20:43:50.597Z,7.87
2023-03-26T20:46:31.151Z,7.87
2023-03-26T20:49:05.936Z,7.79
2023-03-26T20:51:41.023Z,7.76
2023-03-26T20:54:16.892Z,7.74
2023-03-26T20:56:49.696Z,7.72
2023-03-26T20:59:25.469Z,7.69
2023-03-26T21:01:59.608Z,7.60
2023-03-26T21:04:31.985Z,7.54
2023-03-26T21:07:14.984Z,7.44
2023-03-26T21:09:50.370Z,7.34
2023-03-26T21:12:29.343Z,7.35
2023-03-26T21:15:07.334Z,7.28
2023-03-26T21:17:44.525Z,7.26
2023-03-26T21:20:18.707Z,7.23
2023-03-26T21:22:58.016Z,7.25
2023-03-26T21:25:38.897Z,7.25
2023-03-26T21:28:35.482Z,7.27
2023-03-26T21:31:17.753Z,7.19
2023-03-26T21:33:51.686Z,7.18
2023-03-26T21:36:24.783Z,7.14
2023-03-26T21:38:58.067Z,7.07
2023-03-26T21:41:37.820Z,6.97
2023-03-26T21:44:10.280Z,6.98
2023-03-26T21:46:44.855Z,6.91
2023-03-26T21:49:18.722Z,6.87
2023-03-26T21:51:51.516Z,6.91
2023-03-26T21:54:26.498Z,6.90
2023-03-26T21:57:15.532Z,6.90
2023-03-26T21:59:57.779Z,6.87
2023-03-26T22:02:37.414Z,6.82
2023-03-26T22:05:14.289Z,6.84
2023-03-26T22:07:54.316Z,6.80
2023-03-26T22:10:26.740Z,6.75
2023-03-26T22:12:59.635Z,6.66
2023-03-26T22:15:33.337Z,6.64
2023-03-26T22:18:06.539Z,6.63
2023-03-26T22:20:40.636Z,6.61
2023-03-26T22:23:12.999Z,6.55
2023-03-26T22:25:45.684Z,6.52
2023-03-26T22:28:18.917Z,6.53
2023-03-26T22:30:51.505Z,6.54
2023-03-26T22:33:23.941Z,6.48
2023-03-26T22:35:57.450Z,6.50
2023-03-26T22:38:30.001Z,6.40
2023-03-26T22:41:02.773Z,6.30
2023-03-26T22:43:35.185Z,6.25
2023-03-26T22:46:07.678Z,6.23
2023-03-26T22:48:40.062Z,6.21
2023-03-26T22:51:13.206Z,6.23
2023-03-26T22:53:45.762Z,6.23
2023-03-26T22:56:18.270Z,6.24
2023-03-26T22:58:50.714Z,5.99
2023-03-26T23:01:24.166Z,6.02
2023-03-26T23:03:56.969Z,5.97
2023-03-26T23:06:30.889Z,5.94
2023-03-26T23:09:06.341Z,6.00
2023-03-26T23:11:39.306Z,6.03
2023-03-26T23:14:11.673Z,6.00
2023-03-26T23:16:44.974Z,6.03
2023-03-26T23:19:17.314Z,6.03
2023-03-26T23:21:50.882Z,6.02
2023-03-26T23:24:25.543Z,6.01
2023-03-26T23:26:58.120Z,5.91
2023-03-26T23:29:31.096Z,5.89
2023-03-26T23:32:04.172Z,5.89
2023-03-26T23:34:56.366Z,5.83
2023-03-26T23:37:34.091Z,5.88
2023-03-26T23:40:09.407Z,5.95
2023-03-26T23:42:41.772Z,5.96
2023-03-26T23:45:14.086Z,5.96
2023-03-26T23:47:46.659Z,6.00
2023-03-26T23:50:19.952Z,5.93
2023-03-26T23:52:53.362Z,5.89
2023-03-26T23:55:26.701Z,5.89
2023-03-26T23:57:58.982Z,5.92
